sensor_id;sensor_type;location;lat;lon;timestamp;P1;durP1;ratioP1;P2;durP2;ratioP2
1563;SDS011;775;51.958;7.976;2023-09-08T00:00:24;16.20;;;5.60;;
1563;SDS011;775;51.958;7.976;2023-09-08T00:02:51;16.27;;;5.93;;
1563;SDS011;775;51.958;7.976;2023-09-08T00:05:18;16.23;;;5.70;;
1563;SDS011;775;51.958;7.976;2023-09-08T00:07:45;15.57;;;5.77;;
1563;SDS011;775;51.958;7.976;2023-09-08T00:10:12;19.10;;;6.50;;
1563;SDS011;775;51.958;7.976;2023-09-08T00:12:39;18.20;;;5.80;;
1563;SDS011;775;51.958;7.976;2023-09-08T00:15:08;17.30;;;5.90;;
1563;SDS011;775;51.958;7.976;2023-09-08T00:17:36;17.20;;;6.80;;
1563;SDS011;775;51.958;7.976;2023-09-08T00:20:03;19.67;;;6.37;;
1563;SDS011;775;51.958;7.976;2023-09-08T00:22:33;19.60;;;5.80;;
1563;SDS011;775;51.958;7.976;2023-09-08T00:25:00;17.93;;;6.50;;
1563;SDS011;775;51.958;7.976;2023-09-08T00:27:29;17.10;;;5.47;;
1563;SDS011;775;51.958;7.976;2023-09-08T00:29:56;17.67;;;5.90;;
1563;SDS011;775;51.958;7.976;2023-09-08T00:32:24;16.47;;;6.20;;
1563;SDS011;775;51.958;7.976;2023-09-08T00:34:51;16.83;;;5.80;;
1563;SDS011;775;51.958;7.976;2023-09-08T00:37:18;18.80;;;6.60;;
1563;SDS011;775;51.958;7.976;2023-09-08T00:39:45;21.13;;;6.50;;
1563;SDS011;775;51.958;7.976;2023-09-08T00:42:12;19.53;;;6.93;;
1563;SDS011;775;51.958;7.976;2023-09-08T00:44:40;17.23;;;6.20;;
1563;SDS011;775;51.958;7.976;2023-09-08T00:47:07;17.43;;;6.43;;
1563;SDS011;775;51.958;7.976;2023-09-08T00:49:35;15.60;;;5.50;;
1563;SDS011;775;51.958;7.976;2023-09-08T00:52:03;17.50;;;6.00;;
1563;SDS011;775;51.958;7.976;2023-09-08T00:54:30;16.23;;;6.00;;
1563;SDS011;775;51.958;7.976;2023-09-08T00:56:57;17.43;;;6.60;;
1563;SDS011;775;51.958;7.976;2023-09-08T00:59:24;16.47;;;6.17;;
1563;SDS011;775;51.958;7.976;2023-09-08T01:01:52;16.27;;;5.97;;
1563;SDS011;775;51.958;7.976;2023-09-08T01:04:20;16.10;;;6.27;;
1563;SDS011;775;51.958;7.976;2023-09-08T01:06:48;16.70;;;6.40;;
1563;SDS011;775;51.958;7.976;2023-09-08T01:09:16;19.87;;;6.40;;
1563;SDS011;775;51.958;7.976;2023-09-08T01:11:43;16.63;;;6.50;;
1563;SDS011;775;51.958;7.976;2023-09-08T01:14:11;17.00;;;5.63;;
1563;SDS011;775;51.958;7.976;2023-09-08T01:16:38;17.87;;;6.40;;
1563;SDS011;775;51.958;7.976;2023-09-08T01:19:06;18.93;;;6.50;;
1563;SDS011;775;51.958;7.976;2023-09-08T01:24:29;17.97;;;5.97;;
1563;SDS011;775;51.958;7.976;2023-09-08T01:27:02;21.00;;;6.00;;
1563;SDS011;775;51.958;7.976;2023-09-08T01:29:31;17.67;;;6.70;;
1563;SDS011;775;51.958;7.976;2023-09-08T01:31:58;16.37;;;5.97;;
1563;SDS011;775;51.958;7.976;2023-09-08T01:34:25;16.47;;;6.23;;
1563;SDS011;775;51.958;7.976;2023-09-08T01:36:53;16.37;;;5.53;;
1563;SDS011;775;51.958;7.976;2023-09-08T01:39:20;18.13;;;6.60;;
1563;SDS011;775;51.958;7.976;2023-09-08T01:41:47;16.70;;;6.37;;
1563;SDS011;775;51.958;7.976;2023-09-08T01:44:16;17.37;;;6.70;;
1563;SDS011;775;51.958;7.976;2023-09-08T01:46:43;17.97;;;6.93;;
1563;SDS011;775;51.958;7.976;2023-09-08T01:49:10;17.50;;;6.33;;
1563;SDS011;775;51.958;7.976;2023-09-08T01:51:37;18.13;;;6.43;;
1563;SDS011;775;51.958;7.976;2023-09-08T01:54:04;17.93;;;6.67;;
1563;SDS011;775;51.958;7.976;2023-09-08T01:56:31;16.93;;;6.33;;
1563;SDS011;775;51.958;7.976;2023-09-08T01:58:58;16.87;;;6.43;;
1563;SDS011;775;51.958;7.976;2023-09-08T02:01:27;17.57;;;6.23;;
1563;SDS011;775;51.958;7.976;2023-09-08T02:03:54;19.17;;;6.70;;
1563;SDS011;775;51.958;7.976;2023-09-08T02:06:21;18.90;;;6.43;;
1563;SDS011;775;51.958;7.976;2023-09-08T02:08:48;17.17;;;6.27;;
1563;SDS011;775;51.958;7.976;2023-09-08T02:11:15;16.60;;;6.47;;
1563;SDS011;775;51.958;7.976;2023-09-08T02:13:42;17.50;;;6.80;;
1563;SDS011;775;51.958;7.976;2023-09-08T02:16:12;17.77;;;6.97;;
1563;SDS011;775;51.958;7.976;2023-09-08T02:18:41;18.87;;;6.57;;
1563;SDS011;775;51.958;7.976;2023-09-08T02:21:08;17.30;;;7.00;;
1563;SDS011;775;51.958;7.976;2023-09-08T02:23:35;17.43;;;6.80;;
1563;SDS011;775;51.958;7.976;2023-09-08T02:26:02;17.30;;;6.73;;
1563;SDS011;775;51.958;7.976;2023-09-08T02:28:29;16.70;;;6.90;;
1563;SDS011;775;51.958;7.976;2023-09-08T02:30:56;17.53;;;6.70;;
1563;SDS011;775;51.958;7.976;2023-09-08T02:33:23;17.20;;;6.33;;
1563;SDS011;775;51.958;7.976;2023-09-08T02:35:52;17.40;;;7.37;;
1563;SDS011;775;51.958;7.976;2023-09-08T02:38:19;18.23;;;7.50;;
1563;SDS011;775;51.958;7.976;2023-09-08T02:40:46;17.90;;;7.33;;
1563;SDS011;775;51.958;7.976;2023-09-08T02:43:13;18.30;;;6.83;;
1563;SDS011;775;51.958;7.976;2023-09-08T02:45:40;16.97;;;6.23;;
1563;SDS011;775;51.958;7.976;2023-09-08T02:48:07;18.70;;;7.30;;
1563;SDS011;775;51.958;7.976;2023-09-08T02:50:35;17.40;;;6.20;;
1563;SDS011;775;51.958;7.976;2023-09-08T02:53:03;18.90;;;7.07;;
1563;SDS011;775;51.958;7.976;2023-09-08T02:55:30;17.50;;;6.43;;
1563;SDS011;775;51.958;7.976;2023-09-08T02:57:57;18.73;;;6.40;;
1563;SDS011;775;51.958;7.976;2023-09-08T03:00:24;17.93;;;6.80;;
1563;SDS011;775;51.958;7.976;2023-09-08T03:02:52;17.70;;;7.10;;
1563;SDS011;775;51.958;7.976;2023-09-08T03:05:19;19.63;;;7.43;;
1563;SDS011;775;51.958;7.976;2023-09-08T03:07:47;16.60;;;6.50;;
1563;SDS011;775;51.958;7.976;2023-09-08T03:10:15;19.70;;;6.93;;
1563;SDS011;775;51.958;7.976;2023-09-08T03:12:43;23.33;;;7.83;;
1563;SDS011;775;51.958;7.976;2023-09-08T03:15:10;17.43;;;6.63;;
1563;SDS011;775;51.958;7.976;2023-09-08T03:17:37;17.63;;;6.43;;
1563;SDS011;775;51.958;7.976;2023-09-08T03:20:04;17.60;;;6.93;;
1563;SDS011;775;51.958;7.976;2023-09-08T03:22:33;18.90;;;7.43;;
1563;SDS011;775;51.958;7.976;2023-09-08T03:25:00;18.17;;;7.07;;
1563;SDS011;775;51.958;7.976;2023-09-08T03:27:29;18.17;;;7.17;;
1563;SDS011;775;51.958;7.976;2023-09-08T03:29:56;17.87;;;7.07;;
1563;SDS011;775;51.958;7.976;2023-09-08T03:32:24;18.43;;;7.73;;
1563;SDS011;775;51.958;7.976;2023-09-08T03:34:51;18.47;;;7.13;;
1563;SDS011;775;51.958;7.976;2023-09-08T03:37:18;17.47;;;7.00;;
1563;SDS011;775;51.958;7.976;2023-09-08T03:39:45;19.27;;;7.37;;
1563;SDS011;775;51.958;7.976;2023-09-08T03:42:12;18.70;;;7.43;;
1563;SDS011;775;51.958;7.976;2023-09-08T03:44:40;17.83;;;7.50;;
1563;SDS011;775;51.958;7.976;2023-09-08T03:47:07;18.30;;;7.67;;
1563;SDS011;775;51.958;7.976;2023-09-08T03:49:35;17.80;;;7.27;;
1563;SDS011;775;51.958;7.976;2023-09-08T03:52:02;18.80;;;8.17;;
1563;SDS011;775;51.958;7.976;2023-09-08T03:54:29;18.63;;;7.70;;
1563;SDS011;775;51.958;7.976;2023-09-08T03:56:56;18.03;;;6.83;;
1563;SDS011;775;51.958;7.976;2023-09-08T03:59:23;18.17;;;7.30;;
1563;SDS011;775;51.958;7.976;2023-09-08T04:01:52;18.20;;;7.00;;
1563;SDS011;775;51.958;7.976;2023-09-08T04:04:19;17.70;;;6.70;;
1563;SDS011;775;51.958;7.976;2023-09-08T04:06:46;18.23;;;7.10;;
1563;SDS011;775;51.958;7.976;2023-09-08T04:09:13;18.67;;;7.27;;
1563;SDS011;775;51.958;7.976;2023-09-08T04:11:40;19.00;;;7.37;;
1563;SDS011;775;51.958;7.976;2023-09-08T04:14:08;18.57;;;7.73;;
1563;SDS011;775;51.958;7.976;2023-09-08T04:16:35;18.20;;;7.10;;
1563;SDS011;775;51.958;7.976;2023-09-08T04:19:03;18.23;;;7.33;;
1563;SDS011;775;51.958;7.976;2023-09-08T04:21:30;18.80;;;7.87;;
1563;SDS011;775;51.958;7.976;2023-09-08T04:23:57;18.77;;;6.90;;
1563;SDS011;775;51.958;7.976;2023-09-08T04:26:24;19.20;;;7.13;;
1563;SDS011;775;51.958;7.976;2023-09-08T04:28:51;20.10;;;7.40;;
1563;SDS011;775;51.958;7.976;2023-09-08T04:31:18;18.70;;;8.17;;
1563;SDS011;775;51.958;7.976;2023-09-08T04:33:47;18.07;;;7.60;;
1563;SDS011;775;51.958;7.976;2023-09-08T04:36:15;17.03;;;7.13;;
1563;SDS011;775;51.958;7.976;2023-09-08T04:38:42;19.50;;;7.27;;
1563;SDS011;775;51.958;7.976;2023-09-08T04:41:09;20.00;;;7.47;;
1563;SDS011;775;51.958;7.976;2023-09-08T04:43:36;20.27;;;7.27;;
1563;SDS011;775;51.958;7.976;2023-09-08T04:46:03;19.27;;;7.13;;
1563;SDS011;775;51.958;7.976;2023-09-08T04:48:31;19.40;;;8.07;;
1563;SDS011;775;51.958;7.976;2023-09-08T04:50:58;19.97;;;7.67;;
1563;SDS011;775;51.958;7.976;2023-09-08T04:53:26;23.43;;;8.77;;
1563;SDS011;775;51.958;7.976;2023-09-08T04:55:53;17.30;;;6.80;;
1563;SDS011;775;51.958;7.976;2023-09-08T04:58:20;20.20;;;7.93;;
1563;SDS011;775;51.958;7.976;2023-09-08T05:00:48;20.13;;;7.83;;
1563;SDS011;775;51.958;7.976;2023-09-08T05:03:15;18.33;;;8.00;;
1563;SDS011;775;51.958;7.976;2023-09-08T05:05:42;18.43;;;7.00;;
1563;SDS011;775;51.958;7.976;2023-09-08T05:08:09;17.40;;;6.70;;
1563;SDS011;775;51.958;7.976;2023-09-08T05:10:37;18.47;;;7.30;;
1563;SDS011;775;51.958;7.976;2023-09-08T05:13:04;19.47;;;8.63;;
1563;SDS011;775;51.958;7.976;2023-09-08T05:15:31;21.67;;;7.60;;
1563;SDS011;775;51.958;7.976;2023-09-08T05:17:58;20.00;;;7.20;;
1563;SDS011;775;51.958;7.976;2023-09-08T05:20:25;18.50;;;7.67;;
1563;SDS011;775;51.958;7.976;2023-09-08T05:22:53;17.70;;;7.27;;
1563;SDS011;775;51.958;7.976;2023-09-08T05:25:20;20.83;;;6.83;;
1563;SDS011;775;51.958;7.976;2023-09-08T05:27:48;24.70;;;8.17;;
1563;SDS011;775;51.958;7.976;2023-09-08T05:30:15;17.90;;;7.00;;
1563;SDS011;775;51.958;7.976;2023-09-08T05:32:42;19.20;;;7.23;;
1563;SDS011;775;51.958;7.976;2023-09-08T05:35:09;19.07;;;7.90;;
1563;SDS011;775;51.958;7.976;2023-09-08T05:37:36;19.50;;;7.60;;
1563;SDS011;775;51.958;7.976;2023-09-08T05:40:04;17.37;;;6.77;;
1563;SDS011;775;51.958;7.976;2023-09-08T05:42:31;19.50;;;7.60;;
1563;SDS011;775;51.958;7.976;2023-09-08T05:45:00;17.90;;;7.30;;
1563;SDS011;775;51.958;7.976;2023-09-08T05:47:27;18.53;;;7.40;;
1563;SDS011;775;51.958;7.976;2023-09-08T05:49:54;18.60;;;7.27;;
1563;SDS011;775;51.958;7.976;2023-09-08T05:52:21;18.40;;;7.70;;
1563;SDS011;775;51.958;7.976;2023-09-08T05:54:48;20.97;;;7.07;;
1563;SDS011;775;51.958;7.976;2023-09-08T05:57:15;17.80;;;6.80;;
1563;SDS011;775;51.958;7.976;2023-09-08T05:59:42;19.33;;;7.57;;
1563;SDS011;775;51.958;7.976;2023-09-08T06:02:11;19.30;;;7.13;;
1563;SDS011;775;51.958;7.976;2023-09-08T06:04:38;18.10;;;7.67;;
1563;SDS011;775;51.958;7.976;2023-09-08T06:07:05;18.50;;;7.10;;
1563;SDS011;775;51.958;7.976;2023-09-08T06:09:32;18.13;;;7.50;;
1563;SDS011;775;51.958;7.976;2023-09-08T06:11:59;16.90;;;6.77;;
1563;SDS011;775;51.958;7.976;2023-09-08T06:14:26;20.70;;;7.83;;
1563;SDS011;775;51.958;7.976;2023-09-08T06:16:53;20.37;;;7.03;;
1563;SDS011;775;51.958;7.976;2023-09-08T06:19:22;17.17;;;7.27;;
1563;SDS011;775;51.958;7.976;2023-09-08T06:21:49;17.20;;;7.23;;
1563;SDS011;775;51.958;7.976;2023-09-08T06:24:16;17.87;;;6.43;;
1563;SDS011;775;51.958;7.976;2023-09-08T06:26:43;18.20;;;6.73;;
1563;SDS011;775;51.958;7.976;2023-09-08T06:29:10;19.47;;;6.63;;
1563;SDS011;775;51.958;7.976;2023-09-08T06:31:37;17.57;;;7.10;;
1563;SDS011;775;51.958;7.976;2023-09-08T06:34:04;17.17;;;6.97;;
1563;SDS011;775;51.958;7.976;2023-09-08T06:36:33;19.57;;;7.63;;
1563;SDS011;775;51.958;7.976;2023-09-08T06:39:00;17.77;;;6.60;;
1563;SDS011;775;51.958;7.976;2023-09-08T06:41:27;18.10;;;6.80;;
1563;SDS011;775;51.958;7.976;2023-09-08T06:43:54;22.27;;;6.80;;
1563;SDS011;775;51.958;7.976;2023-09-08T06:46:21;18.00;;;7.50;;
1563;SDS011;775;51.958;7.976;2023-09-08T06:48:48;17.97;;;6.83;;
1563;SDS011;775;51.958;7.976;2023-09-08T06:51:15;17.17;;;7.00;;
1563;SDS011;775;51.958;7.976;2023-09-08T06:53:44;17.30;;;6.17;;
1563;SDS011;775;51.958;7.976;2023-09-08T06:56:11;20.33;;;6.93;;
1563;SDS011;775;51.958;7.976;2023-09-08T06:58:38;18.13;;;6.80;;
1563;SDS011;775;51.958;7.976;2023-09-08T07:01:05;17.50;;;5.83;;
1563;SDS011;775;51.958;7.976;2023-09-08T07:03:32;17.43;;;7.10;;
1563;SDS011;775;51.958;7.976;2023-09-08T07:06:02;18.57;;;7.63;;
1563;SDS011;775;51.958;7.976;2023-09-08T07:08:29;18.03;;;7.27;;
1563;SDS011;775;51.958;7.976;2023-09-08T07:10:57;18.70;;;6.63;;
1563;SDS011;775;51.958;7.976;2023-09-08T07:13:24;17.87;;;6.97;;
1563;SDS011;775;51.958;7.976;2023-09-08T07:15:51;18.67;;;6.60;;
1563;SDS011;775;51.958;7.976;2023-09-08T07:18:18;18.73;;;7.07;;
1563;SDS011;775;51.958;7.976;2023-09-08T07:20:46;17.57;;;7.10;;
1563;SDS011;775;51.958;7.976;2023-09-08T07:23:13;22.10;;;6.53;;
1563;SDS011;775;51.958;7.976;2023-09-08T07:25:44;17.37;;;6.47;;
1563;SDS011;775;51.958;7.976;2023-09-08T07:28:12;16.20;;;5.77;;
1563;SDS011;775;51.958;7.976;2023-09-08T07:30:40;16.70;;;5.80;;
1563;SDS011;775;51.958;7.976;2023-09-08T07:33:07;17.93;;;6.10;;
1563;SDS011;775;51.958;7.976;2023-09-08T07:35:37;16.97;;;6.27;;
1563;SDS011;775;51.958;7.976;2023-09-08T07:38:04;19.33;;;5.90;;
1563;SDS011;775;51.958;7.976;2023-09-08T07:40:31;17.60;;;6.33;;
1563;SDS011;775;51.958;7.976;2023-09-08T07:42:58;19.33;;;5.80;;
1563;SDS011;775;51.958;7.976;2023-09-08T07:45:27;17.60;;;6.87;;
1563;SDS011;775;51.958;7.976;2023-09-08T07:47:54;26.10;;;6.07;;
1563;SDS011;775;51.958;7.976;2023-09-08T07:50:22;16.47;;;5.77;;
1563;SDS011;775;51.958;7.976;2023-09-08T07:52:49;17.67;;;6.20;;
1563;SDS011;775;51.958;7.976;2023-09-08T07:55:17;18.33;;;6.17;;
1563;SDS011;775;51.958;7.976;2023-09-08T07:57:45;18.70;;;5.93;;
1563;SDS011;775;51.958;7.976;2023-09-08T08:00:12;15.27;;;5.10;;
1563;SDS011;775;51.958;7.976;2023-09-08T08:02:42;17.40;;;6.20;;
1563;SDS011;775;51.958;7.976;2023-09-08T08:05:09;15.97;;;5.63;;
1563;SDS011;775;51.958;7.976;2023-09-08T08:07:36;16.57;;;5.37;;
1563;SDS011;775;51.958;7.976;2023-09-08T08:10:03;16.47;;;4.90;;
1563;SDS011;775;51.958;7.976;2023-09-08T08:12:30;17.23;;;6.03;;
1563;SDS011;775;51.958;7.976;2023-09-08T08:14:57;15.67;;;5.17;;
1563;SDS011;775;51.958;7.976;2023-09-08T08:17:25;16.13;;;5.40;;
1563;SDS011;775;51.958;7.976;2023-09-08T08:19:54;19.10;;;5.70;;
1563;SDS011;775;51.958;7.976;2023-09-08T08:22:21;17.50;;;5.27;;
1563;SDS011;775;51.958;7.976;2023-09-08T08:24:48;16.50;;;5.27;;
1563;SDS011;775;51.958;7.976;2023-09-08T08:27:15;16.10;;;4.90;;
1563;SDS011;775;51.958;7.976;2023-09-08T08:29:42;17.00;;;5.10;;
1563;SDS011;775;51.958;7.976;2023-09-08T08:32:09;15.80;;;5.17;;
1563;SDS011;775;51.958;7.976;2023-09-08T08:34:37;15.67;;;5.53;;
1563;SDS011;775;51.958;7.976;2023-09-08T08:37:05;17.33;;;5.50;;
1563;SDS011;775;51.958;7.976;2023-09-08T08:39:32;17.13;;;5.50;;
1563;SDS011;775;51.958;7.976;2023-09-08T08:42:06;15.50;;;4.80;;
1563;SDS011;775;51.958;7.976;2023-09-08T08:44:33;16.67;;;5.57;;
1563;SDS011;775;51.958;7.976;2023-09-08T08:47:01;15.40;;;4.60;;
1563;SDS011;775;51.958;7.976;2023-09-08T08:49:29;15.60;;;5.27;;
1563;SDS011;775;51.958;7.976;2023-09-08T08:51:57;15.50;;;5.17;;
1563;SDS011;775;51.958;7.976;2023-09-08T08:54:30;15.30;;;4.70;;
1563;SDS011;775;51.958;7.976;2023-09-08T08:56:57;16.60;;;4.90;;
1563;SDS011;775;51.958;7.976;2023-09-08T08:59:24;17.50;;;5.70;;
1563;SDS011;775;51.958;7.976;2023-09-08T09:01:51;15.50;;;4.90;;
1563;SDS011;775;51.958;7.976;2023-09-08T09:04:18;16.00;;;4.37;;
1563;SDS011;775;51.958;7.976;2023-09-08T09:06:46;15.67;;;5.47;;
1563;SDS011;775;51.958;7.976;2023-09-08T09:09:13;16.10;;;4.80;;
1563;SDS011;775;51.958;7.976;2023-09-08T09:11:42;15.20;;;4.60;;
1563;SDS011;775;51.958;7.976;2023-09-08T09:14:09;17.90;;;5.30;;
1563;SDS011;775;51.958;7.976;2023-09-08T09:16:38;16.37;;;4.50;;
1563;SDS011;775;51.958;7.976;2023-09-08T09:19:06;15.73;;;5.20;;
1563;SDS011;775;51.958;7.976;2023-09-08T09:21:41;16.10;;;5.40;;
1563;SDS011;775;51.958;7.976;2023-09-08T09:24:10;15.87;;;5.00;;
1563;SDS011;775;51.958;7.976;2023-09-08T09:26:40;15.97;;;5.27;;
1563;SDS011;775;51.958;7.976;2023-09-08T09:29:09;15.67;;;4.90;;
1563;SDS011;775;51.958;7.976;2023-09-08T09:31:40;15.60;;;5.30;;
1563;SDS011;775;51.958;7.976;2023-09-08T09:34:16;17.40;;;5.00;;
1563;SDS011;775;51.958;7.976;2023-09-08T09:36:43;15.10;;;5.07;;
1563;SDS011;775;51.958;7.976;2023-09-08T09:39:13;17.83;;;5.67;;
1563;SDS011;775;51.958;7.976;2023-09-08T09:41:40;18.57;;;5.70;;
1563;SDS011;775;51.958;7.976;2023-09-08T09:44:07;15.17;;;5.13;;
1563;SDS011;775;51.958;7.976;2023-09-08T09:46:36;14.77;;;5.00;;
1563;SDS011;775;51.958;7.976;2023-09-08T09:49:03;15.20;;;4.80;;
1563;SDS011;775;51.958;7.976;2023-09-08T09:51:30;14.70;;;4.20;;
1563;SDS011;775;51.958;7.976;2023-09-08T09:53:57;15.80;;;5.30;;
1563;SDS011;775;51.958;7.976;2023-09-08T09:56:24;15.57;;;4.70;;
1563;SDS011;775;51.958;7.976;2023-09-08T09:58:52;17.23;;;5.20;;
1563;SDS011;775;51.958;7.976;2023-09-08T10:01:20;15.40;;;4.87;;
1563;SDS011;775;51.958;7.976;2023-09-08T10:03:49;15.53;;;4.80;;
1563;SDS011;775;51.958;7.976;2023-09-08T10:06:16;15.30;;;4.53;;
1563;SDS011;775;51.958;7.976;2023-09-08T10:08:43;16.17;;;5.47;;
1563;SDS011;775;51.958;7.976;2023-09-08T10:11:10;15.30;;;4.87;;
1563;SDS011;775;51.958;7.976;2023-09-08T10:13:41;17.07;;;5.57;;
1563;SDS011;775;51.958;7.976;2023-09-08T10:16:09;14.60;;;5.07;;
1563;SDS011;775;51.958;7.976;2023-09-08T10:18:38;15.93;;;4.70;;
1563;SDS011;775;51.958;7.976;2023-09-08T10:21:07;15.90;;;5.23;;
1563;SDS011;775;51.958;7.976;2023-09-08T10:23:36;15.30;;;4.57;;
1563;SDS011;775;51.958;7.976;2023-09-08T10:26:05;17.70;;;5.63;;
1563;SDS011;775;51.958;7.976;2023-09-08T10:28:32;15.87;;;5.93;;
1563;SDS011;775;51.958;7.976;2023-09-08T10:31:00;16.30;;;5.13;;
1563;SDS011;775;51.958;7.976;2023-09-08T10:33:28;15.50;;;4.70;;
1563;SDS011;775;51.958;7.976;2023-09-08T10:35:55;14.93;;;4.33;;
1563;SDS011;775;51.958;7.976;2023-09-08T10:38:25;15.30;;;4.77;;
1563;SDS011;775;51.958;7.976;2023-09-08T10:40:53;15.83;;;5.30;;
1563;SDS011;775;51.958;7.976;2023-09-08T10:43:20;14.80;;;4.20;;
1563;SDS011;775;51.958;7.976;2023-09-08T10:45:47;15.40;;;4.53;;
1563;SDS011;775;51.958;7.976;2023-09-08T10:48:14;14.80;;;4.40;;
1563;SDS011;775;51.958;7.976;2023-09-08T10:50:41;15.87;;;5.37;;
1563;SDS011;775;51.958;7.976;2023-09-08T10:53:13;16.40;;;4.83;;
1563;SDS011;775;51.958;7.976;2023-09-08T10:55:43;15.53;;;4.83;;
1563;SDS011;775;51.958;7.976;2023-09-08T10:58:17;15.27;;;4.73;;
1563;SDS011;775;51.958;7.976;2023-09-08T11:00:46;14.60;;;4.30;;
1563;SDS011;775;51.958;7.976;2023-09-08T11:03:13;16.20;;;4.73;;
1563;SDS011;775;51.958;7.976;2023-09-08T11:05:43;15.80;;;5.50;;
1563;SDS011;775;51.958;7.976;2023-09-08T11:08:10;15.67;;;4.50;;
1563;SDS011;775;51.958;7.976;2023-09-08T11:10:39;15.67;;;4.90;;
1563;SDS011;775;51.958;7.976;2023-09-08T11:13:08;14.93;;;4.73;;
1563;SDS011;775;51.958;7.976;2023-09-08T11:15:36;15.93;;;5.47;;
1563;SDS011;775;51.958;7.976;2023-09-08T11:18:04;15.97;;;4.97;;
1563;SDS011;775;51.958;7.976;2023-09-08T11:20:34;15.70;;;4.80;;
1563;SDS011;775;51.958;7.976;2023-09-08T11:23:01;15.10;;;4.80;;
1563;SDS011;775;51.958;7.976;2023-09-08T11:25:30;15.87;;;4.70;;
1563;SDS011;775;51.958;7.976;2023-09-08T11:27:58;17.23;;;5.97;;
1563;SDS011;775;51.958;7.976;2023-09-08T11:30:27;16.10;;;5.10;;
1563;SDS011;775;51.958;7.976;2023-09-08T11:32:54;15.87;;;4.87;;
1563;SDS011;775;51.958;7.976;2023-09-08T11:35:26;15.63;;;4.60;;
1563;SDS011;775;51.958;7.976;2023-09-08T11:37:58;15.30;;;5.00;;
1563;SDS011;775;51.958;7.976;2023-09-08T11:40:25;14.60;;;4.60;;
1563;SDS011;775;51.958;7.976;2023-09-08T11:42:53;14.90;;;5.10;;
1563;SDS011;775;51.958;7.976;2023-09-08T11:45:20;15.43;;;4.77;;
1563;SDS011;775;51.958;7.976;2023-09-08T11:47:49;15.13;;;4.70;;
1563;SDS011;775;51.958;7.976;2023-09-08T11:50:17;14.30;;;4.30;;
1563;SDS011;775;51.958;7.976;2023-09-08T11:52:45;14.50;;;4.30;;
1563;SDS011;775;51.958;7.976;2023-09-08T11:55:12;15.53;;;5.10;;
1563;SDS011;775;51.958;7.976;2023-09-08T11:57:40;16.30;;;4.97;;
1563;SDS011;775;51.958;7.976;2023-09-08T12:00:07;16.57;;;5.20;;
1563;SDS011;775;51.958;7.976;2023-09-08T12:02:39;17.27;;;5.03;;
1563;SDS011;775;51.958;7.976;2023-09-08T12:05:12;15.60;;;5.20;;
1563;SDS011;775;51.958;7.976;2023-09-08T12:07:39;14.20;;;4.47;;
1563;SDS011;775;51.958;7.976;2023-09-08T12:10:07;14.80;;;4.30;;
1563;SDS011;775;51.958;7.976;2023-09-08T12:12:40;16.47;;;4.73;;
1563;SDS011;775;51.958;7.976;2023-09-08T12:15:08;16.70;;;4.77;;
1563;SDS011;775;51.958;7.976;2023-09-08T12:17:45;15.40;;;4.53;;
1563;SDS011;775;51.958;7.976;2023-09-08T12:20:14;15.00;;;4.50;;
1563;SDS011;775;51.958;7.976;2023-09-08T12:22:47;14.97;;;4.50;;
1563;SDS011;775;51.958;7.976;2023-09-08T12:25:15;15.00;;;4.13;;
1563;SDS011;775;51.958;7.976;2023-09-08T12:27:42;15.20;;;4.50;;
1563;SDS011;775;51.958;7.976;2023-09-08T12:30:15;15.37;;;4.33;;
1563;SDS011;775;51.958;7.976;2023-09-08T12:32:44;15.10;;;4.00;;
1563;SDS011;775;51.958;7.976;2023-09-08T12:35:12;15.67;;;4.70;;
1563;SDS011;775;51.958;7.976;2023-09-08T12:37:40;17.17;;;4.50;;
1563;SDS011;775;51.958;7.976;2023-09-08T12:40:08;15.00;;;4.37;;
1563;SDS011;775;51.958;7.976;2023-09-08T12:42:35;15.10;;;4.53;;
1563;SDS011;775;51.958;7.976;2023-09-08T12:45:03;16.07;;;4.93;;
1563;SDS011;775;51.958;7.976;2023-09-08T12:47:30;15.80;;;4.83;;
1563;SDS011;775;51.958;7.976;2023-09-08T12:49:57;15.43;;;4.47;;
1563;SDS011;775;51.958;7.976;2023-09-08T12:52:25;14.63;;;4.17;;
1563;SDS011;775;51.958;7.976;2023-09-08T12:54:53;15.73;;;4.97;;
1563;SDS011;775;51.958;7.976;2023-09-08T12:57:20;15.07;;;4.27;;
1563;SDS011;775;51.958;7.976;2023-09-08T12:59:47;14.77;;;4.33;;
1563;SDS011;775;51.958;7.976;2023-09-08T13:02:16;15.07;;;4.33;;
1563;SDS011;775;51.958;7.976;2023-09-08T13:04:43;14.77;;;4.37;;
1563;SDS011;775;51.958;7.976;2023-09-08T13:07:13;15.37;;;4.30;;
1563;SDS011;775;51.958;7.976;2023-09-08T13:09:40;16.50;;;4.40;;
1563;SDS011;775;51.958;7.976;2023-09-08T13:12:09;15.83;;;4.47;;
1563;SDS011;775;51.958;7.976;2023-09-08T13:14:37;15.47;;;4.13;;
1563;SDS011;775;51.958;7.976;2023-09-08T13:17:05;15.57;;;4.80;;
1563;SDS011;775;51.958;7.976;2023-09-08T13:19:32;15.70;;;4.40;;
1563;SDS011;775;51.958;7.976;2023-09-08T13:21:59;15.57;;;4.80;;
1563;SDS011;775;51.958;7.976;2023-09-08T13:24:26;15.20;;;4.10;;
1563;SDS011;775;51.958;7.976;2023-09-08T13:26:53;15.73;;;3.83;;
1563;SDS011;775;51.958;7.976;2023-09-08T13:29:22;15.70;;;4.73;;
1563;SDS011;775;51.958;7.976;2023-09-08T13:31:49;14.30;;;4.10;;
1563;SDS011;775;51.958;7.976;2023-09-08T13:34:16;14.50;;;4.40;;
1563;SDS011;775;51.958;7.976;2023-09-08T13:36:43;14.57;;;4.70;;
1563;SDS011;775;51.958;7.976;2023-09-08T13:39:10;16.47;;;4.83;;
1563;SDS011;775;51.958;7.976;2023-09-08T13:41:44;17.67;;;4.40;;
1563;SDS011;775;51.958;7.976;2023-09-08T13:44:11;15.53;;;4.70;;
1563;SDS011;775;51.958;7.976;2023-09-08T13:46:40;15.80;;;4.10;;
1563;SDS011;775;51.958;7.976;2023-09-08T13:49:07;18.97;;;4.27;;
1563;SDS011;775;51.958;7.976;2023-09-08T13:51:34;14.93;;;4.10;;
1563;SDS011;775;51.958;7.976;2023-09-08T13:54:01;15.97;;;4.20;;
1563;SDS011;775;51.958;7.976;2023-09-08T13:56:28;16.27;;;4.53;;
1563;SDS011;775;51.958;7.976;2023-09-08T13:58:55;14.97;;;4.30;;
1563;SDS011;775;51.958;7.976;2023-09-08T14:01:22;15.20;;;4.80;;
1563;SDS011;775;51.958;7.976;2023-09-08T14:03:51;14.60;;;3.83;;
1563;SDS011;775;51.958;7.976;2023-09-08T14:06:18;15.40;;;4.30;;
1563;SDS011;775;51.958;7.976;2023-09-08T14:08:45;15.30;;;4.23;;
1563;SDS011;775;51.958;7.976;2023-09-08T14:11:12;15.37;;;4.50;;
1563;SDS011;775;51.958;7.976;2023-09-08T14:13:39;15.17;;;4.20;;
1563;SDS011;775;51.958;7.976;2023-09-08T14:16:08;15.40;;;4.20;;
1563;SDS011;775;51.958;7.976;2023-09-08T14:18:35;14.60;;;3.90;;
1563;SDS011;775;51.958;7.976;2023-09-08T14:21:03;18.53;;;4.30;;
1563;SDS011;775;51.958;7.976;2023-09-08T14:23:30;14.40;;;3.77;;
1563;SDS011;775;51.958;7.976;2023-09-08T14:25:59;15.27;;;4.77;;
1563;SDS011;775;51.958;7.976;2023-09-08T14:28:26;14.77;;;4.30;;
1563;SDS011;775;51.958;7.976;2023-09-08T14:30:53;14.07;;;3.73;;
1563;SDS011;775;51.958;7.976;2023-09-08T14:33:20;14.23;;;3.90;;
1563;SDS011;775;51.958;7.976;2023-09-08T14:35:47;14.83;;;4.20;;
1563;SDS011;775;51.958;7.976;2023-09-08T14:38:17;16.50;;;4.20;;
1563;SDS011;775;51.958;7.976;2023-09-08T14:40:45;16.40;;;4.23;;
1563;SDS011;775;51.958;7.976;2023-09-08T14:43:12;15.50;;;4.70;;
1563;SDS011;775;51.958;7.976;2023-09-08T14:45:39;15.30;;;4.40;;
1563;SDS011;775;51.958;7.976;2023-09-08T14:48:06;15.27;;;4.10;;
1563;SDS011;775;51.958;7.976;2023-09-08T14:50:33;14.73;;;4.10;;
1563;SDS011;775;51.958;7.976;2023-09-08T14:53:00;14.40;;;3.90;;
1563;SDS011;775;51.958;7.976;2023-09-08T14:55:29;15.77;;;4.17;;
1563;SDS011;775;51.958;7.976;2023-09-08T14:57:56;15.50;;;3.93;;
1563;SDS011;775;51.958;7.976;2023-09-08T15:00:23;14.43;;;3.90;;
1563;SDS011;775;51.958;7.976;2023-09-08T15:02:50;14.40;;;4.00;;
1563;SDS011;775;51.958;7.976;2023-09-08T15:05:17;15.53;;;3.90;;
1563;SDS011;775;51.958;7.976;2023-09-08T15:07:44;14.67;;;4.23;;
1563;SDS011;775;51.958;7.976;2023-09-08T15:10:11;15.10;;;4.33;;
1563;SDS011;775;51.958;7.976;2023-09-08T15:12:40;15.27;;;4.00;;
1563;SDS011;775;51.958;7.976;2023-09-08T15:15:08;15.27;;;4.60;;
1563;SDS011;775;51.958;7.976;2023-09-08T15:17:35;15.37;;;4.23;;
1563;SDS011;775;51.958;7.976;2023-09-08T15:20:02;15.30;;;4.43;;